Latest Coastal Weather Observations for Derby

IDW60701

Issued at 9:43 pm WST Sunday 11 December 2016 (issued every 10 minutes, with the page automatically refreshed every 10 minutes)

About coastal observations | Map of coastal stations | Coastal observations for WA | Marine services | Other Formats
Station Details ID: 003032 Name: DERBY AERO Lat: -17.37 Lon: 123.66 Height: 6.2 m
Data from the previous 72 hours. | See also: Recent months at Derby
Date/Time
WST
Temp
°C
Wind Pressure Rain since
9am
mm
Weather Cloud Vis
km
Sea
Height
m
Swell
Dir  Spd
kts
Gust
kts
hPa Trend Height
m
Period
s
Dir
11/09:30pm 28.5 N 6 6 1008.6 - 0.0 - - - - - - -
11/09:00pm 28.7 N 6 7 1008.3 - 0.0 - - - - - - -
11/08:30pm 29.4 NE 1 4 1007.9 - 0.0 - - - - - - -
11/08:00pm 29.3 E 5 6 1007.4 - 0.0 - - - - - - -
11/07:30pm 29.6 NW 1 4 1007.1 - 0.0 - - - - - - -
11/07:00pm 30.0 NNE 9 12 1007.1 - 0.0 - - - - - - -
11/06:30pm 31.4 N 7 14 1007.2 - 0.0 - - - - - - -
11/06:00pm 32.0 NW 6 7 1006.9 - 0.0 - - - - - - -
11/05:30pm 33.0 NNW 8 9 1006.6 - 0.0 - - - - - - -
11/05:00pm 33.8 WNW 6 8 1006.0 - 0.0 - - - - - - -
11/04:30pm 34.1 W 7 9 1006.0 - 0.0 - - - - - - -
11/04:00pm 34.1 WNW 8 10 1006.0 - 0.0 - - - - - - -
11/03:30pm 33.5 NW 9 10 1006.0 - 0.0 - - - - - - -
11/03:00pm 34.2 WNW 6 8 1006.2 - 0.0 - - - - - - -
11/02:30pm 34.4 NW 4 7 1006.6 - 0.0 - - - - - - -
11/02:00pm 33.9 NE 3 6 1007.1 - 0.0 - - - - - - -
11/01:30pm 33.6 ENE 6 9 1007.5 - 0.0 - - - - - - -
11/01:00pm 32.8 NE 5 8 1008.1 - 0.0 - - - - - - -
11/12:30pm 32.5 ESE 7 10 1008.2 - 0.0 - - - - - - -
11/12:00pm 32.2 ESE 4 7 1008.5 - 0.0 - - - - - - -
11/11:30am 31.7 ESE 6 8 1008.9 - 0.0 - - - - - - -
11/11:00am 31.7 E 9 12 1009.2 - 0.0 - - - - - - -
11/10:30am 31.7 ENE 8 12 1009.8 - 0.0 - - - - - - -
11/10:00am 31.5 ENE 10 14 1010.0 - 0.0 - - - - - - -
11/09:30am 29.3 ENE 10 13 1010.4 - 0.0 - - - - - - -
11/09:00am 28.6 ENE 8 11 1010.5 - 44.2 - - - - - - -
11/08:30am 28.1 E 9 12 1010.4 - 44.2 - - - - - - -
11/08:00am 27.6 E 6 9 1010.4 - 44.2 - - - - - - -
11/07:30am 27.0 E 9 13 1010.3 - 44.2 - - - - - - -
11/07:00am 26.2 E 7 10 1010.4 - 44.2 - - - - - - -
11/06:30am 25.3 E 8 10 1010.3 - 44.2 - - - - - - -
11/06:00am 24.9 E 10 12 1010.3 - 44.2 - - - - - - -
11/05:30am 24.9 ESE 8 10 1010.2 - 44.2 - - - - - - -
11/05:00am 24.6 SE 7 8 1010.0 - 44.2 - - - - - - -
11/04:30am 24.5 SSE 5 6 1010.0 - 44.2 - - - - - - -
11/04:00am 24.2 SE 6 7 1009.9 - 44.2 - - - - - - -
11/03:30am 24.0 SE 9 11 1010.3 - 43.8 - - - - - - -
11/03:00am 24.0 SE 9 10 1010.9 - 42.2 Rain - - - - - -
11/02:30am 23.9 SE 6 9 1010.9 - 39.4 - - - - - - -
11/02:00am 24.3 S 6 8 1011.2 - 35.6 - - - - - - -
11/01:30am 24.6 SE 4 7 1010.7 - 33.2 - - - - - - -
11/01:00am 24.4 ENE 7 11 1010.0 - 31.8 - - - - - - -
11/12:30am 24.0 ESE 8 10 1010.8 - 29.8 - - - - - - -
11/12:00am 23.7 ENE 13 22 1010.7 - 28.4 Rain - - - - - -
 
Date/Time
WST
Temp
°C
Wind Pressure Rain since
9am
mm
Weather Cloud Vis
km
Sea
Height
m
Swell
Dir  Spd
kts
Gust
kts
hPa Trend Height
m
Period
s
Dir
10/11:33pm 23.6 NE 17 27 1010.9 - 22.2 - - - - - - -
10/11:30pm 23.7 NE 17 26 1010.9 - 20.6 - - - - - - -
10/11:07pm 26.2 E 19 29 1010.4 - 0.2 - - - - - - -
10/11:00pm 27.3 E 21 29 1010.5 - 0.0 - - - - - - -
10/10:54pm 28.4 E 15 29 1010.4 - 0.0 - - - - - - -
10/10:30pm 31.4 SE 7 10 1009.3 - 0.0 - - - - - - -
10/10:00pm 31.3 WNW 11 13 1009.0 - 0.0 - - - - - - -
10/09:30pm 31.2 NW 11 13 1008.9 - 0.0 - - - - - - -
10/09:00pm 31.5 NW 9 11 1008.3 - 0.0 - - - - - - -
10/08:30pm 32.0 NW 8 11 1007.8 - 0.0 - - - - - - -
10/08:00pm 31.9 NW 7 8 1007.7 - 0.0 - - - - - - -
10/07:30pm 32.0 NW 5 6 1007.4 - 0.0 - - - - - - -
10/07:00pm 32.3 WNW 5 6 1006.7 - 0.0 - - - - - - -
10/06:30pm 32.9 WNW 5 6 1006.3 - 0.0 - - - - - - -
10/06:00pm 33.5 WNW 7 8 1006.0 - 0.0 - - - - - - -
10/05:30pm 34.1 WNW 7 9 1005.7 - 0.0 - - - - - - -
10/05:00pm 34.5 WNW 10 12 1005.5 - 0.0 - - - - - - -
10/04:30pm 35.1 WNW 9 13 1005.3 - 0.0 - - - - - - -
10/04:00pm 36.3 WSW 5 8 1005.3 - 0.0 - - - - - - -
10/03:30pm 36.2 NNE 6 9 1005.5 - 0.0 - - - - - - -
10/03:00pm 36.1 NE 7 13 1005.7 - 0.0 - - - - - - -
10/02:30pm 36.2 NE 3 8 1006.2 - 0.0 - - - - - - -
10/02:00pm 35.5 SSW 4 7 1006.8 - 0.0 - - - - - - -
10/01:30pm 34.6 SSE 7 11 1007.2 - 0.0 - - - - - - -
10/01:00pm 34.9 ESE 7 12 1007.7 - 0.0 - - - - - - -
10/12:30pm 34.0 ESE 6 9 1008.1 - 0.0 - - - - - - -
10/12:00pm 34.2 NNE 3 8 1008.5 - 0.0 - - - - - - -
10/11:30am 32.9 E 6 9 1009.1 - 0.0 - - - - - - -
10/11:00am 32.6 E 4 7 1009.9 - 0.0 - - - - - - -
10/10:30am 32.0 NE 6 9 1010.3 - 0.0 - - - - - - -
10/10:00am 31.4 NE 5 8 1010.7 - 0.0 - - - - - - -
10/09:30am 31.5 ESE 6 11 1010.9 - 0.0 - - - - - - -
10/09:00am 30.2 NNE 8 12 1011.3 - 8.2 - - - - - - -
10/08:30am 29.6 NE 9 14 1011.5 - 8.2 - - - - - - -
10/08:00am 28.4 ENE 8 12 1011.3 - 8.2 - - - - - - -
10/07:30am 27.9 E 4 5 1010.9 - 8.2 - - - - - - -
10/07:00am 27.3 SSE 3 4 1010.4 - 8.2 - - - - - - -
10/06:30am 27.0 E 4 5 1009.8 - 8.2 - - - - - - -
10/06:00am 26.7 CALM 0 0 1009.2 - 8.2 - - - - - - -
10/05:30am 26.1 CALM 0 0 1009.0 - 8.2 - - - - - - -
10/05:00am 26.2 SE 2 4 1008.0 - 8.2 - - - - - - -
10/04:30am 26.0 E 5 7 1007.8 - 8.2 - - - - - - -
10/04:00am 26.0 ENE 7 10 1007.3 - 8.2 - - - - - - -
10/03:30am 25.8 NE 9 13 1007.3 - 8.2 - - - - - - -
10/03:00am 25.6 NE 8 11 1007.6 - 8.2 - - - - - - -
10/02:30am 25.6 ENE 7 9 1007.6 - 8.2 - - - - - - -
10/02:00am 25.5 NE 9 12 1007.7 - 8.2 - - - - - - -
10/01:30am 25.7 ENE 7 9 1008.3 - 8.2 - - - - - - -
10/01:00am 25.8 NE 5 7 1008.4 - 8.0 - - - - - - -
10/12:30am 26.1 NE 5 7 1009.0 - 7.6 - - - - - - -
10/12:00am 26.1 NNE 7 9 1009.4 - 6.8 Rain - - - - - -
 
Date/Time
WST
Temp
°C
Wind Pressure Rain since
9am
mm
Weather Cloud Vis
km
Sea
Height
m
Swell
Dir  Spd
kts
Gust
kts
hPa Trend Height
m
Period
s
Dir
09/11:30pm 26.3 N 7 10 1009.9 - 6.0 - - - - - - -
09/11:00pm 26.5 NNW 8 10 1010.4 - 4.2 - - - - - - -
09/10:30pm 26.5 NW 9 10 1010.5 - 2.8 - - - - - - -
09/10:00pm 26.2 E 5 9 1010.2 - 1.2 - - - - - - -
09/09:30pm 26.5 ESE 10 12 1009.1 - 0.2 - - - - - - -
09/09:00pm 28.1 ESE 12 16 1009.2 - 0.0 - - - - - - -
09/08:30pm 30.3 E 16 23 1009.2 - 0.0 - - - - - - -
09/08:28pm 30.6 E 15 20 1009.1 - 0.0 - - - - - - -
09/08:00pm 31.3 SE 6 8 1007.8 - 0.0 - - - - - - -
09/07:30pm 31.3 SE 5 7 1007.2 - 0.0 - - - - - - -
09/07:00pm 30.7 ESE 9 10 1006.6 - 0.0 - - - - - - -
09/06:30pm 31.2 SE 6 6 1005.8 - 0.0 - - - - - - -
09/06:00pm 31.8 ENE 8 11 1004.9 - 0.0 - - - - - - -
09/05:30pm 32.4 NE 9 15 1004.7 - 0.0 - - - - - - -
09/05:00pm 35.1 N 7 9 1003.6 - 0.0 - - - - - - -
09/04:30pm 31.0 S 3 6 1003.5 - 0.0 - - - - - - -
09/04:12pm 30.1 SSE 12 19 1004.0 - 0.0 - - - - - - -
09/04:00pm 31.1 SSE 21 33 1003.9 - 0.0 - - - - - - -
09/03:58pm 32.4 SSE 22 33 1003.9 - 0.0 - - - - - - -
09/03:54pm 30.9 SSE 22 33 1003.9 - 0.0 - - - - - - -
09/03:37pm 30.4 SE 22 37 1005.2 - 0.0 - - - - - - -
09/03:34pm 30.6 SSE 18 37 1004.6 - 0.0 - - - - - - -
09/03:31pm 32.3 SSE 13 35 1004.0 - 0.0 - - - - - - -
09/03:30pm 32.2 WNW 12 23 1004.2 - 0.0 - - - - - - -
09/03:26pm 35.8 NW 15 22 1004.3 - 0.0 - - - - - - -
09/03:00pm 36.8 NNW 22 28 1002.5 - 0.0 - - - - - - -
09/02:30pm 38.3 NNW 21 25 1003.0 - 0.0 - - - - - - -
09/02:00pm 39.1 NNE 12 22 1003.4 - 0.0 - - - - - - -
09/01:30pm 39.8 NE 9 16 1003.5 - 0.0 - - - - - - -
09/01:00pm 40.0 NE 10 14 1003.9 - 0.0 - - - - - - -
09/12:30pm 40.6 ENE 12 17 1004.1 - 0.0 - - - - - - -
09/12:00pm 40.4 NE 10 15 1004.3 - 0.0 - - - - - - -
09/11:30am 40.6 E 11 16 1004.7 - 0.0 - - - - - - -
09/11:00am 39.8 E 12 18 1005.0 - 0.0 - - - - - - -
09/10:30am 40.1 ENE 11 17 1005.3 - 0.0 - - - - - - -
09/10:00am 39.8 ENE 12 17 1005.7 - 0.0 - - - - - - -
09/09:30am 39.4 E 13 20 1006.0 - 0.0 - - - - - - -
09/09:00am 38.7 ESE 14 19 1006.4 - 0.6 - - - - - - -
09/08:30am 37.9 E 14 20 1006.6 - 0.6 - - - - - - -
09/08:00am 36.8 E 12 20 1006.8 - 0.6 - - - - - - -
09/07:30am 35.9 ESE 12 17 1006.9 - 0.6 - - - - - - -
09/07:00am 34.5 SE 12 16 1006.7 - 0.6 - - - - - - -
09/06:30am 34.0 SE 12 18 1006.5 - 0.6 - - - - - - -
09/06:00am 32.8 SE 9 14 1006.4 - 0.6 - - - - - - -
09/05:30am 31.7 SE 9 12 1006.0 - 0.6 - - - - - - -
09/05:00am 31.3 SE 8 10 1005.7 - 0.6 - - - - - - -
09/04:30am 30.7 SSE 8 11 1005.5 - 0.6 - - - - - - -
09/04:00am 30.7 SSE 7 9 1005.2 - 0.6 - - - - - - -
09/03:30am 30.6 S 7 9 1005.1 - 0.6 - - - - - - -
09/03:00am 30.7 S 7 9 1004.8 - 0.6 - - - - - - -
09/02:30am 30.4 S 6 8 1004.9 - 0.6 - - - - - - -
09/02:00am 31.0 S 6 8 1004.8 - 0.6 - - - - - - -
09/01:30am 31.6 S 8 10 1005.0 - 0.6 - - - - - - -
09/01:00am 31.6 S 9 10 1005.2 - 0.6 - - - - - - -
09/12:30am 31.2 SSW 8 10 1005.3 - 0.6 - - - - - - -
09/12:00am 30.9 SSW 8 9 1005.6 - 0.6 - - - - - - -
 
Date/Time
WST
Temp
°C
Wind Pressure Rain since
9am
mm
Weather Cloud Vis
km
Sea
Height
m
Swell
Dir  Spd
kts
Gust
kts
hPa Trend Height
m
Period
s
Dir
08/11:30pm 30.8 SW 7 9 1005.9 - 0.6 - - - - - - -
08/11:00pm 31.1 SW 8 11 1006.1 - 0.6 - - - - - - -
08/10:30pm 31.7 SW 10 13 1006.1 - 0.6 - - - - - - -
08/10:00pm 31.5 WSW 7 9 1006.1 - 0.6 - - - - - - -

Other Formats:

Comma delimited format used in spreadsheet applications
http://www.bom.gov.au/fwo/IDW60701/IDW60701.95205.axf

JavaScript Object Notation format (JSON) in row-major order
http://www.bom.gov.au/fwo/IDW60701/IDW60701.95205.json